Latest Coastal Weather Observations for Derby

IDW60701

Issued at 4:02 am WST Sunday 29 May 2016 (issued every 10 minutes, with the page automatically refreshed every 10 minutes)

About coastal observations | Map of coastal stations | Coastal observations for WA | Marine services | Other Formats
Station Details ID: 003032 Name: DERBY AERO Lat: -17.37 Lon: 123.66 Height: 6.2 m
Data from the previous 72 hours. | See also: Recent months at Derby
Date/Time
WST
Temp

°C
Wind Pressure Rain
since 9am
mm
Weather Cloud Vis
km
Sea
Height
m
Swell
Dir
 
Speed
knots
Gust
knots
hPa Trend Height
m
Period
s
Dir
29/04:00am 22.5 SE 1 3 1012.0 - 0.0 - - - - - - -
29/03:30am 22.6 CALM 0 0 1011.7 - 0.0 - - - - - - -
29/03:00am 23.5 SSE 1 3 1011.6 - 0.0 - - - - - - -
29/02:30am 23.6 SE 4 5 1011.6 - 0.0 - - - - - - -
29/02:00am 24.3 SSE 5 7 1011.5 - 0.0 - - - - - - -
29/01:30am 24.3 SSE 4 6 1011.6 - 0.0 - - - - - - -
29/01:00am 24.6 S 3 4 1011.7 - 0.0 - - - - - - -
29/12:30am 24.9 S 5 6 1011.7 - 0.0 - - - - - - -
29/12:00am 25.3 SSW 7 8 1011.8 - 0.0 - - - - - - -
 
Date/Time
WST
Temp

°C
Wind Pressure Rain
since 9am
mm
Weather Cloud Vis
km
Sea
Height
m
Swell
Dir
 
Speed
knots
Gust
knots
hPa Trend Height
m
Period
s
Dir
28/11:30pm 25.9 SSW 5 6 1012.0 - 0.0 - - - - - - -
28/11:00pm 26.1 SW 5 5 1012.1 - 0.0 - - - - - - -
28/10:30pm 27.3 SW 5 7 1012.4 - 0.0 - - - - - - -
28/10:00pm 25.3 CALM 0 0 1012.4 - 0.0 - - - - - - -
28/09:30pm 25.8 CALM 0 0 1012.4 - 0.0 - - - - - - -
28/09:00pm 26.6 CALM 0 2 1012.5 - 0.0 - - - - - - -
28/08:30pm 26.2 CALM 0 0 1012.4 - 0.0 - - - - - - -
28/08:00pm 27.4 CALM 0 0 1012.3 - 0.0 - - - - - - -
28/07:30pm 27.6 CALM 0 0 1012.1 - 0.0 - - - - - - -
28/07:00pm 28.9 E 1 4 1011.9 - 0.0 - - - - - - -
28/06:30pm 29.4 ESE 2 4 1011.6 - 0.0 - - - - - - -
28/06:00pm 29.9 N 3 4 1011.2 - 0.0 - - - - - - -
28/05:30pm 30.7 NNW 5 6 1010.9 - 0.0 - - - - - - -
28/05:00pm 32.1 NW 6 7 1010.6 - 0.0 - - - - - - -
28/04:30pm 33.1 NW 7 9 1010.5 - 0.0 - - - - - - -
28/04:00pm 33.6 NW 8 10 1010.3 - 0.0 - - - - - - -
28/03:30pm 34.1 NW 9 13 1010.1 - 0.0 - - - - - - -
28/03:00pm 34.3 WNW 9 12 1010.1 - 0.0 - - - - - - -
28/02:30pm 34.5 W 4 9 1010.3 - 0.0 - - - - - - -
28/02:00pm 34.6 SSW 5 7 1010.6 - 0.0 - - - - - - -
28/01:30pm 35.0 NE 3 7 1010.9 - 0.0 - - - - - - -
28/01:00pm 33.8 SSW 4 9 1011.4 - 0.0 - - - - - - -
28/12:30pm 34.4 SE 5 10 1011.9 - 0.0 - - - - - - -
28/12:00pm 33.8 SSE 3 7 1012.5 - 0.0 - - - - - - -
28/11:30am 34.3 E 5 10 1012.8 - 0.0 - - - - - - -
28/11:00am 33.6 ENE 5 7 1013.3 - 0.0 - - - - - - -
28/10:30am 32.8 E 6 9 1013.9 - 0.0 - - - - - - -
28/10:00am 31.4 ESE 6 9 1014.4 - 0.0 - - - - - - -
28/09:30am 30.4 ESE 6 9 1014.7 - 0.0 - - - - - - -
28/09:00am 28.7 ESE 5 7 1014.9 - 0.0 - - - - - - -
28/08:30am 26.8 SE 5 7 1015.0 - 0.0 - - - - - - -
28/08:00am 25.3 SSE 5 7 1015.0 - 0.0 - - - - - - -
28/07:30am 24.0 S 4 5 1014.8 - 0.0 - - - - - - -
28/07:00am 22.8 S 3 4 1014.6 - 0.0 - - - - - - -
28/06:30am 21.7 SSW 4 5 1014.4 - 0.0 - - - - - - -
28/06:00am 21.9 SSW 5 6 1014.1 - 0.0 - - - - - - -
28/05:30am 22.0 SSW 6 7 1014.0 - 0.0 - - - - - - -
28/05:00am 22.3 SSW 5 7 1013.7 - 0.0 - - - - - - -
28/04:30am 22.4 SW 4 5 1013.6 - 0.0 - - - - - - -
28/04:00am 22.8 SSW 4 5 1013.3 - 0.0 - - - - - - -
28/03:30am 23.5 SSW 4 5 1013.3 - 0.0 - - - - - - -
28/03:00am 23.5 S 5 6 1013.2 - 0.0 - - - - - - -
28/02:30am 23.8 S 4 4 1013.3 - 0.0 - - - - - - -
28/02:00am 24.1 SSE 5 7 1013.3 - 0.0 - - - - - - -
28/01:30am 24.9 S 6 8 1013.4 - 0.0 - - - - - - -
28/01:00am 25.2 S 5 6 1013.3 - 0.0 - - - - - - -
28/12:30am 25.4 S 4 5 1013.6 - 0.0 - - - - - - -
28/12:00am 26.2 S 6 9 1013.8 - 0.0 - - - - - - -
 
Date/Time
WST
Temp

°C
Wind Pressure Rain
since 9am
mm
Weather Cloud Vis
km
Sea
Height
m
Swell
Dir
 
Speed
knots
Gust
knots
hPa Trend Height
m
Period
s
Dir
27/11:30pm 24.5 WSW 5 9 1013.6 - 0.0 - - - - - - -
27/11:00pm 26.7 SE 5 6 1013.4 - 0.0 - - - - - - -
27/10:30pm 26.5 ESE 5 6 1013.4 - 0.0 - - - - - - -
27/10:00pm 26.9 SE 6 7 1013.5 - 0.0 - - - - - - -
27/09:30pm 27.5 SE 6 7 1013.6 - 0.0 - - - - - - -
27/09:00pm 27.8 SE 6 7 1013.5 - 0.0 - - - - - - -
27/08:30pm 28.7 ESE 6 8 1013.4 - 0.0 - - - - - - -
27/08:00pm 29.3 ESE 7 10 1013.3 - 0.0 - - - - - - -
27/07:30pm 29.0 ESE 6 7 1013.2 - 0.0 - - - - - - -
27/07:00pm 29.2 ESE 6 7 1013.0 - 0.0 - - - - - - -
27/06:30pm 29.5 E 5 6 1012.8 - 0.0 - - - - - - -
27/06:00pm 30.9 ESE 5 6 1012.6 - 0.0 - - - - - - -
27/05:30pm 31.9 SE 5 6 1012.5 - 0.0 - - - - - - -
27/05:00pm 32.9 SE 8 10 1012.2 - 0.0 - - - - - - -
27/04:30pm 33.7 SE 9 13 1011.8 - 0.0 - - - - - - -
27/04:00pm 34.2 SSE 8 13 1011.6 - 0.0 - - - - - - -
27/03:30pm 34.3 SSE 7 10 1011.5 - 0.0 - - - - - - -
27/03:00pm 34.6 SSE 10 14 1011.4 - 0.0 - - - - - - -
27/02:30pm 34.6 SSE 7 12 1011.5 - 0.0 - - - - - - -
27/02:00pm 34.5 SE 7 10 1011.6 - 0.0 - - - - - - -
27/01:30pm 34.5 SSE 8 12 1011.9 - 0.0 - - - - - - -
27/01:00pm 34.6 SE 7 12 1012.1 - 0.0 - - - - - - -
27/12:30pm 34.5 SE 9 13 1012.6 - 0.0 - - - - - - -
27/12:00pm 34.1 SE 8 11 1013.2 - 0.0 - - - - - - -
27/11:30am 34.1 SSE 7 12 1013.6 - 0.0 - - - - - - -
27/11:00am 32.9 S 6 11 1014.2 - 0.0 - - - - - - -
27/10:30am 32.1 SE 7 13 1014.8 - 0.0 - - - - - - -
27/10:00am 31.0 S 5 8 1015.0 - 0.0 - - - - - - -
27/09:30am 30.9 CALM 0 4 1015.4 - 0.0 - - - - - - -
27/09:00am 28.3 SSE 1 4 1015.5 - 0.0 - - - - - - -
27/08:30am 28.0 SE 2 4 1015.5 - 0.0 - - - - - - -
27/08:00am 26.2 SSW 5 7 1015.3 - 0.0 - - - - - - -
27/07:30am 25.1 SSW 6 7 1015.3 - 0.0 - - - - - - -
27/07:00am 23.0 SSW 5 6 1014.8 - 0.0 - - - - - - -
27/06:30am 21.9 S 5 6 1014.4 - 0.0 - - - - - - -
27/06:00am 21.5 S 6 6 1014.0 - 0.0 - - - - - - -
27/05:30am 21.7 SSW 6 7 1014.0 - 0.0 - - - - - - -
27/05:00am 22.3 S 5 7 1013.8 - 0.0 - - - - - - -
27/04:30am 22.5 S 6 7 1013.8 - 0.0 - - - - - - -
27/04:00am 22.6 S 5 6 1013.7 - 0.0 - - - - - - -
27/03:30am 22.6 SSW 5 7 1013.8 - 0.0 - - - - - - -
27/03:00am 22.9 SSW 4 4 1013.8 - 0.0 - - - - - - -
27/02:30am 23.1 SSW 5 5 1014.2 - 0.0 - - - - - - -
27/02:00am 23.4 SW 5 6 1014.3 - 0.0 - - - - - - -
27/01:30am 24.0 SSW 4 5 1014.4 - 0.0 - - - - - - -
27/01:00am 24.4 SSW 5 6 1014.5 - 0.0 - - - - - - -
27/12:30am 24.7 S 4 5 1014.2 - 0.0 - - - - - - -
27/12:00am 24.8 SSW 5 6 1014.2 - 0.0 - - - - - - -
 
Date/Time
WST
Temp

°C
Wind Pressure Rain
since 9am
mm
Weather Cloud Vis
km
Sea
Height
m
Swell
Dir
 
Speed
knots
Gust
knots
hPa Trend Height
m
Period
s
Dir
26/11:30pm 25.3 S 7 10 1013.9 - 0.0 - - - - - - -
26/11:00pm 25.7 SSE 5 7 1013.8 - 0.0 - - - - - - -
26/10:30pm 25.6 SSE 4 5 1013.9 - 0.0 - - - - - - -
26/10:00pm 26.1 S 4 5 1014.1 - 0.0 - - - - - - -
26/09:30pm 25.9 S 1 5 1014.2 - 0.0 - - - - - - -
26/09:00pm 26.4 WSW 4 5 1014.1 - 0.0 - - - - - - -
26/08:30pm 26.7 N 1 4 1014.1 - 0.0 - - - - - - -
26/08:00pm 27.2 WNW 1 4 1013.8 - 0.0 - - - - - - -
26/07:30pm 27.3 WNW 5 5 1013.7 - 0.0 - - - - - - -
26/07:00pm 28.2 NNW 4 4 1013.6 - 0.0 - - - - - - -
26/06:30pm 28.8 N 4 6 1013.2 - 0.0 - - - - - - -
26/06:00pm 29.3 N 5 6 1012.9 - 0.0 - - - - - - -
26/05:30pm 30.4 N 6 7 1012.8 - 0.0 - - - - - - -
26/05:00pm 31.6 NNW 8 9 1012.5 - 0.0 - - - - - - -
26/04:30pm 32.6 NNW 7 9 1012.4 - 0.0 - - - - - - -
26/04:00pm 32.7 NW 7 10 1012.3 - 0.0 - - - - - - -
26/03:30pm 33.1 NW 9 13 1012.1 - 0.0 - - - - - - -
26/03:00pm 33.4 WNW 9 12 1012.0 - 0.0 - - - - - - -
26/02:30pm 34.1 WNW 9 13 1012.1 - 0.0 - - - - - - -
26/02:00pm 33.6 W 8 11 1012.2 - 0.0 - - - - - - -
26/01:30pm 33.7 W 8 12 1012.5 - 0.0 - - - - - - -
26/01:00pm 34.0 WNW 6 10 1012.8 - 0.0 - - - - - - -
26/12:30pm 33.7 NE 4 7 1013.2 - 0.0 - - - - - - -
26/12:00pm 32.8 S 5 9 1013.7 - 0.0 - - - - - - -
26/11:30am 32.1 S 6 10 1014.0 - 0.0 - - - - - - -
26/11:00am 31.8 S 7 11 1014.6 - 0.0 - - - - - - -
26/10:30am 30.9 SSE 8 11 1015.0 - 0.0 - - - - - - -
26/10:00am 30.1 S 7 11 1015.4 - 0.0 - - - - - - -
26/09:30am 29.3 S 7 9 1015.7 - 0.0 - - - - - - -
26/09:00am 28.2 SSE 7 9 1015.6 - 0.0 - - - - - - -
26/08:30am 26.8 SSE 6 8 1015.6 - 0.0 - - - - - - -
26/08:00am 25.5 SSE 6 7 1015.3 - 0.0 - - - - - - -
26/07:30am 24.5 S 4 5 1015.0 - 0.0 - - - - - - -
26/07:00am 23.0 CALM 0 0 1014.7 - 0.0 - - - - - - -
26/06:30am 21.8 SSE 3 4 1014.2 - 0.0 - - - - - - -
26/06:00am 21.8 SSW 4 4 1014.1 - 0.0 - - - - - - -
26/05:30am 21.9 SSW 5 5 1013.8 - 0.0 - - - - - - -
26/05:00am 22.3 S 5 6 1013.5 - 0.0 - - - - - - -
26/04:30am 22.7 S 6 7 1013.3 - 0.0 - - - - - - -

Other Formats:

Comma delimited format used in spreadsheet applications
http://www.bom.gov.au/fwo/IDW60701/IDW60701.95205.axf

JavaScript Object Notation format (JSON) in row-major order
http://www.bom.gov.au/fwo/IDW60701/IDW60701.95205.json